Time;durP1;ratioP1;P1;durP2;ratioP2;P2;SDS_P1;SDS_P2;PMS_P1;PMS_P2;Temp;Humidity;BMP_temperature;BMP_pressure;BME280_temperature;BME280_humidity;BME280_pressure;Samples;Min_cycle;Max_cycle;Signal;HPM_P1;HPM_P2
2022/05/10 00:01:05;;;;;;;9.23;4.90;;;;;;;;;;5022361;28;20632;-72
2022/05/10 00:03:35;;;;;;;5.57;4.27;;;;;;;;;;5021740;28;20209;-72
2022/05/10 00:06:04;;;;;;;5.33;4.63;;;;;;;;;;5023501;28;20208;-71
2022/05/10 00:08:33;;;;;;;8.10;4.93;;;;;;;;;;5023416;28;20227;-71
2022/05/10 00:11:05;;;;;;;5.90;4.40;;;;;;;;;;5022243;28;20656;-72
2022/05/10 00:13:33;;;;;;;5.73;4.30;;;;;;;;;;5022509;28;20725;-71
2022/05/10 00:16:03;;;;;;;6.03;4.40;;;;;;;;;;5023360;28;20203;-71
2022/05/10 00:18:32;;;;;;;4.90;4.37;;;;;;;;;;5022971;28;20215;-72
2022/05/10 00:21:00;;;;;;;4.83;4.07;;;;;;;;;;5021452;28;20558;-72
2022/05/10 00:23:29;;;;;;;4.63;4.20;;;;;;;;;;5022057;28;21698;-71
2022/05/10 00:25:57;;;;;;;6.70;4.90;;;;;;;;;;5022571;28;20223;-71
2022/05/10 00:28:25;;;;;;;5.67;4.30;;;;;;;;;;5022635;28;20281;-71
2022/05/10 00:30:54;;;;;;;6.67;4.80;;;;;;;;;;5020739;28;20683;-71
2022/05/10 00:33:26;;;;;;;4.77;4.27;;;;;;;;;;5022915;28;20231;-71
2022/05/10 00:35:55;;;;;;;4.90;4.40;;;;;;;;;;5021718;28;20726;-72
2022/05/10 00:38:26;;;;;;;5.13;4.70;;;;;;;;;;5021873;28;20220;-72
2022/05/10 00:40:56;;;;;;;6.73;5.17;;;;;;;;;;5028392;28;20608;-72
2022/05/10 00:43:29;;;;;;;5.47;4.67;;;;;;;;;;5024076;28;20258;-71
2022/05/10 00:46:00;;;;;;;5.50;4.70;;;;;;;;;;5022959;28;20203;-71
2022/05/10 00:48:32;;;;;;;6.13;5.17;;;;;;;;;;5021714;28;20259;-73
2022/05/10 00:51:10;;;;;;;5.70;4.60;;;;;;;;;;5022093;28;20203;-72
2022/05/10 00:53:46;;;;;;;4.60;4.20;;;;;;;;;;5020808;28;20200;-72
2022/05/10 00:56:17;;;;;;;5.70;4.20;;;;;;;;;;5021219;28;20262;-72
2022/05/10 00:58:50;;;;;;;4.70;3.97;;;;;;;;;;5019664;28;20223;-73
2022/05/10 01:01:21;;;;;;;6.67;4.47;;;;;;;;;;5028045;28;20200;-71
2022/05/10 01:03:53;;;;;;;6.47;3.97;;;;;;;;;;5030806;28;20463;-71
2022/05/10 01:06:25;;;;;;;6.30;4.30;;;;;;;;;;5020474;28;20286;-71
2022/05/10 01:08:58;;;;;;;5.50;4.10;;;;;;;;;;5020576;28;20231;-71
2022/05/10 01:11:30;;;;;;;7.93;4.00;;;;;;;;;;5019706;28;20232;-72
2022/05/10 01:14:01;;;;;;;5.37;4.07;;;;;;;;;;5021354;28;20266;-72
2022/05/10 01:16:29;;;;;;;7.70;4.30;;;;;;;;;;5021708;28;20741;-71
2022/05/10 01:18:59;;;;;;;6.83;4.13;;;;;;;;;;5020967;28;20235;-71
2022/05/10 01:21:37;;;;;;;6.00;4.30;;;;;;;;;;5021707;28;20253;-71
2022/05/10 01:24:22;;;;;;;5.40;4.43;;;;;;;;;;5022295;28;20199;-72
2022/05/10 01:26:55;;;;;;;7.33;4.40;;;;;;;;;;5022422;28;20652;-72
2022/05/10 01:29:27;;;;;;;7.23;4.43;;;;;;;;;;5021089;28;20341;-71
2022/05/10 01:34:40;;;;;;;8.30;4.33;;;;;;;;;;5020109;28;20203;-72
2022/05/10 01:37:10;;;;;;;6.90;4.13;;;;;;;;;;5020790;28;20246;-72
2022/05/10 01:39:41;;;;;;;8.40;4.40;;;;;;;;;;5021910;28;20204;-71
2022/05/10 01:42:12;;;;;;;9.40;4.77;;;;;;;;;;5019850;28;20211;-72
2022/05/10 01:44:46;;;;;;;6.93;4.57;;;;;;;;;;5019989;28;20262;-72
2022/05/10 01:47:15;;;;;;;5.40;4.30;;;;;;;;;;5020279;28;20640;-73
2022/05/10 01:49:46;;;;;;;8.17;4.33;;;;;;;;;;5019941;28;20230;-71
2022/05/10 01:52:17;;;;;;;8.00;4.50;;;;;;;;;;5017923;28;20203;-71
2022/05/10 01:55:10;;;;;;;5.57;4.00;;;;;;;;;;5018020;28;20212;-72
2022/05/10 01:57:39;;;;;;;5.07;4.17;;;;;;;;;;5001390;28;20220;-71
2022/05/10 02:00:12;;;;;;;6.00;4.10;;;;;;;;;;5028745;28;20199;-71
2022/05/10 02:02:43;;;;;;;6.43;4.37;;;;;;;;;;5027823;28;20204;-72
2022/05/10 02:05:13;;;;;;;7.73;4.83;;;;;;;;;;5018454;28;20216;-71
2022/05/10 02:07:43;;;;;;;5.17;4.30;;;;;;;;;;5022095;28;20219;-72
2022/05/10 02:10:13;;;;;;;5.13;4.60;;;;;;;;;;5021743;28;20231;-71
2022/05/10 02:12:44;;;;;;;5.53;4.00;;;;;;;;;;5021428;28;20206;-71
2022/05/10 02:15:17;;;;;;;6.53;4.60;;;;;;;;;;5018088;28;20597;-71
2022/05/10 02:17:51;;;;;;;5.67;4.23;;;;;;;;;;5020802;28;20894;-72
2022/05/10 02:20:24;;;;;;;6.47;4.10;;;;;;;;;;5020611;28;20200;-71
2022/05/10 02:22:55;;;;;;;5.73;4.23;;;;;;;;;;5021375;28;20761;-72
2022/05/10 02:25:26;;;;;;;5.23;4.00;;;;;;;;;;5023131;28;20200;-72
2022/05/10 02:27:57;;;;;;;5.60;4.50;;;;;;;;;;5024475;28;20270;-72
2022/05/10 02:30:29;;;;;;;4.93;4.47;;;;;;;;;;5024112;28;20622;-72
2022/05/10 02:33:09;;;;;;;4.80;4.30;;;;;;;;;;5024655;28;20254;-71
2022/05/10 02:35:41;;;;;;;6.20;4.80;;;;;;;;;;5023286;28;20223;-72
2022/05/10 02:38:10;;;;;;;7.83;4.50;;;;;;;;;;5022877;28;20228;-72
2022/05/10 02:40:41;;;;;;;8.90;4.60;;;;;;;;;;5024384;28;20305;-72
2022/05/10 02:43:11;;;;;;;6.00;4.20;;;;;;;;;;5022696;28;20550;-73
2022/05/10 02:45:42;;;;;;;7.20;4.33;;;;;;;;;;5021292;28;20204;-70
2022/05/10 02:48:15;;;;;;;5.10;4.50;;;;;;;;;;5022354;28;20273;-71
2022/05/10 02:50:43;;;;;;;5.87;4.40;;;;;;;;;;5023096;28;20801;-72
2022/05/10 02:53:12;;;;;;;5.17;4.67;;;;;;;;;;5021647;28;20196;-72
2022/05/10 02:55:42;;;;;;;5.07;4.30;;;;;;;;;;5022973;28;20203;-72
2022/05/10 02:58:14;;;;;;;6.07;4.47;;;;;;;;;;5023645;28;20220;-72
2022/05/10 03:00:44;;;;;;;6.43;4.33;;;;;;;;;;5022257;28;20204;-72
2022/05/10 03:03:16;;;;;;;5.83;4.40;;;;;;;;;;5021084;28;21560;-73
2022/05/10 03:05:44;;;;;;;6.20;4.50;;;;;;;;;;5022970;28;20203;-72
2022/05/10 03:08:13;;;;;;;7.53;4.43;;;;;;;;;;5024222;28;20637;-72
2022/05/10 03:10:41;;;;;;;6.63;4.53;;;;;;;;;;5022823;28;20273;-71
2022/05/10 03:13:09;;;;;;;5.10;4.50;;;;;;;;;;5024153;28;20203;-71
2022/05/10 03:15:38;;;;;;;5.93;4.40;;;;;;;;;;5020797;28;20211;-73
2022/05/10 03:18:07;;;;;;;6.13;4.23;;;;;;;;;;5029300;28;20285;-71
2022/05/10 03:20:36;;;;;;;7.00;4.67;;;;;;;;;;5033350;28;20206;-71
2022/05/10 03:23:05;;;;;;;9.33;4.70;;;;;;;;;;5026637;28;20270;-72
2022/05/10 03:25:33;;;;;;;8.90;4.83;;;;;;;;;;5020794;28;20640;-72
2022/05/10 03:28:01;;;;;;;5.27;4.60;;;;;;;;;;5023117;28;20235;-72
2022/05/10 03:30:31;;;;;;;6.20;4.60;;;;;;;;;;5023072;28;20282;-72
2022/05/10 03:33:00;;;;;;;6.87;4.70;;;;;;;;;;5021677;28;21151;-71
2022/05/10 03:35:30;;;;;;;5.73;4.83;;;;;;;;;;5022181;28;20208;-72
2022/05/10 03:37:58;;;;;;;6.27;4.97;;;;;;;;;;5022561;28;20215;-73
2022/05/10 03:40:26;;;;;;;6.97;5.23;;;;;;;;;;5021993;28;20201;-71
2022/05/10 03:42:55;;;;;;;5.40;4.90;;;;;;;;;;5021461;28;20223;-71
2022/05/10 03:45:24;;;;;;;10.07;4.83;;;;;;;;;;5021584;28;20207;-72
2022/05/10 03:47:53;;;;;;;6.17;4.50;;;;;;;;;;5024126;28;20215;-71
2022/05/10 03:50:25;;;;;;;5.47;4.77;;;;;;;;;;5021521;28;20219;-71
2022/05/10 03:52:55;;;;;;;5.10;4.70;;;;;;;;;;5022805;28;20346;-72
2022/05/10 03:55:25;;;;;;;5.50;5.00;;;;;;;;;;5021248;28;20242;-72
2022/05/10 03:57:54;;;;;;;5.60;4.47;;;;;;;;;;5020875;28;20235;-72
2022/05/10 04:00:23;;;;;;;5.77;5.17;;;;;;;;;;5021795;28;20208;-71
2022/05/10 04:02:52;;;;;;;5.97;4.83;;;;;;;;;;5020352;28;20207;-71
2022/05/10 04:05:21;;;;;;;6.77;5.27;;;;;;;;;;5019510;28;20200;-71
2022/05/10 04:07:50;;;;;;;6.10;5.10;;;;;;;;;;5022056;28;20232;-71
2022/05/10 04:10:20;;;;;;;7.17;4.70;;;;;;;;;;5021013;28;20224;-71
2022/05/10 04:12:48;;;;;;;6.57;4.50;;;;;;;;;;5021300;28;21132;-71
2022/05/10 04:15:18;;;;;;;5.97;4.50;;;;;;;;;;5022089;28;20245;-72
2022/05/10 04:17:46;;;;;;;6.27;4.63;;;;;;;;;;5022748;28;20290;-71
2022/05/10 04:20:15;;;;;;;8.13;5.33;;;;;;;;;;5021667;28;20219;-71
2022/05/10 04:22:44;;;;;;;6.50;5.20;;;;;;;;;;5022963;28;20219;-71
2022/05/10 04:25:16;;;;;;;6.40;5.10;;;;;;;;;;5023142;28;20199;-72
2022/05/10 04:27:47;;;;;;;6.53;5.30;;;;;;;;;;5019824;28;20719;-71
2022/05/10 04:30:15;;;;;;;5.27;4.80;;;;;;;;;;5016496;28;20264;-72
2022/05/10 04:32:44;;;;;;;7.17;5.47;;;;;;;;;;5018890;28;20257;-72
2022/05/10 04:35:13;;;;;;;6.60;5.33;;;;;;;;;;5016488;28;20606;-71
2022/05/10 04:37:41;;;;;;;8.43;5.07;;;;;;;;;;5027771;28;20232;-71
2022/05/10 04:42:57;;;;;;;7.27;4.83;;;;;;;;;;5021289;28;20212;-70
2022/05/10 04:45:26;;;;;;;5.63;4.83;;;;;;;;;;5020115;28;20207;-71
2022/05/10 04:47:54;;;;;;;6.57;4.63;;;;;;;;;;5019969;28;20366;-70
2022/05/10 04:50:23;;;;;;;5.43;4.73;;;;;;;;;;5021444;28;20211;-71
2022/05/10 04:52:51;;;;;;;5.23;4.73;;;;;;;;;;5021138;28;20222;-71
2022/05/10 04:55:20;;;;;;;8.23;4.73;;;;;;;;;;5019931;28;20549;-72
2022/05/10 05:01:14;;;;;;;4.97;4.37;;;;;;;;;;5027782;28;20258;-71
2022/05/10 05:03:44;;;;;;;7.37;4.90;;;;;;;;;;5017630;28;21772;-71
2022/05/10 05:06:12;;;;;;;7.53;5.00;;;;;;;;;;5020387;28;20704;-71
2022/05/10 05:08:41;;;;;;;5.90;4.27;;;;;;;;;;5020533;28;20223;-73
2022/05/10 05:11:09;;;;;;;6.23;4.80;;;;;;;;;;5016254;28;20283;-71
2022/05/10 05:13:38;;;;;;;6.20;4.43;;;;;;;;;;5022373;28;20203;-71
2022/05/10 05:16:07;;;;;;;5.13;4.57;;;;;;;;;;5029390;28;20253;-70
2022/05/10 05:18:37;;;;;;;7.07;4.97;;;;;;;;;;5026141;28;20230;-72
2022/05/10 05:21:05;;;;;;;8.70;5.03;;;;;;;;;;5029074;28;20207;-71
2022/05/10 05:23:34;;;;;;;8.87;4.73;;;;;;;;;;5029134;28;20238;-71
2022/05/10 05:26:03;;;;;;;6.67;4.50;;;;;;;;;;5025986;28;20291;-72
2022/05/10 05:28:31;;;;;;;6.83;4.47;;;;;;;;;;5028570;28;20216;-71
2022/05/10 05:31:00;;;;;;;6.63;5.03;;;;;;;;;;5031741;28;20627;-71
2022/05/10 05:36:26;;;;;;;9.67;5.30;;;;;;;;;;5028687;28;20208;-71
2022/05/10 05:38:56;;;;;;;7.47;4.77;;;;;;;;;;5031863;28;20223;-72
2022/05/10 05:41:24;;;;;;;9.80;4.93;;;;;;;;;;5031270;28;20668;-71
2022/05/10 05:43:53;;;;;;;8.13;4.70;;;;;;;;;;5031078;28;20207;-70
2022/05/10 05:46:21;;;;;;;8.90;4.77;;;;;;;;;;5025341;28;20208;-70
2022/05/10 05:48:50;;;;;;;5.17;4.27;;;;;;;;;;5031083;28;20307;-71
2022/05/10 05:51:18;;;;;;;5.27;4.53;;;;;;;;;;5031774;28;20227;-71
2022/05/10 05:53:46;;;;;;;8.57;4.60;;;;;;;;;;5030727;28;20253;-71
2022/05/10 05:56:16;;;;;;;7.83;4.80;;;;;;;;;;5034071;28;20203;-71
2022/05/10 05:58:45;;;;;;;6.60;4.60;;;;;;;;;;5037297;28;20228;-71
2022/05/10 06:01:14;;;;;;;5.70;4.47;;;;;;;;;;5036402;28;20207;-70
2022/05/10 06:03:43;;;;;;;5.77;4.80;;;;;;;;;;5036181;28;20204;-72
2022/05/10 06:06:12;;;;;;;7.80;4.37;;;;;;;;;;5036744;28;20204;-72
2022/05/10 06:08:44;;;;;;;5.73;4.57;;;;;;;;;;5036251;28;20569;-71
2022/05/10 06:11:13;;;;;;;5.53;4.60;;;;;;;;;;5036588;28;20232;-71
2022/05/10 06:13:43;;;;;;;6.63;4.33;;;;;;;;;;5035023;28;20298;-72
2022/05/10 06:16:11;;;;;;;4.90;4.40;;;;;;;;;;5035516;28;20568;-71
2022/05/10 06:18:41;;;;;;;5.30;4.80;;;;;;;;;;5036181;28;20254;-72
2022/05/10 06:21:09;;;;;;;5.57;4.50;;;;;;;;;;5032016;28;20197;-71
2022/05/10 06:23:38;;;;;;;5.30;4.37;;;;;;;;;;5036212;28;20203;-72
2022/05/10 06:26:07;;;;;;;6.63;4.50;;;;;;;;;;5036531;28;20250;-71
2022/05/10 06:28:35;;;;;;;5.18;4.30;;;;;;;;;;5033123;28;20243;-71
2022/05/10 06:31:08;;;;;;;6.85;4.85;;;;;;;;;;5035274;28;20603;-72
2022/05/10 06:33:37;;;;;;;6.07;4.40;;;;;;;;;;5036200;28;20214;-70
2022/05/10 06:36:05;;;;;;;6.22;4.40;;;;;;;;;;5036230;28;20211;-72
2022/05/10 06:38:34;;;;;;;6.78;4.50;;;;;;;;;;5034908;28;20250;-72
2022/05/10 06:41:04;;;;;;;5.38;4.68;;;;;;;;;;5035797;28;20299;-71
2022/05/10 06:43:35;;;;;;;4.80;4.15;;;;;;;;;;5035757;28;20207;-72
2022/05/10 06:46:05;;;;;;;5.25;4.10;;;;;;;;;;5035143;28;20206;-72
2022/05/10 06:48:35;;;;;;;5.22;4.32;;;;;;;;;;5035832;28;20246;-71
2022/05/10 06:51:06;;;;;;;4.82;4.20;;;;;;;;;;5035414;28;20207;-72
2022/05/10 06:53:34;;;;;;;5.82;4.45;;;;;;;;;;5035735;28;20572;-72
2022/05/10 06:56:03;;;;;;;5.65;4.55;;;;;;;;;;5035867;28;20214;-73
2022/05/10 06:58:31;;;;;;;5.47;4.50;;;;;;;;;;5035892;28;20222;-71
2022/05/10 07:00:59;;;;;;;5.50;4.30;;;;;;;;;;5034697;28;20617;-72
2022/05/10 07:03:31;;;;;;;4.90;4.50;;;;;;;;;;5035700;28;20211;-72
2022/05/10 07:06:02;;;;;;;5.78;4.90;;;;;;;;;;5035473;28;20227;-71
2022/05/10 07:08:31;;;;;;;5.65;4.88;;;;;;;;;;5035158;28;20641;-71
2022/05/10 07:11:00;;;;;;;7.20;4.55;;;;;;;;;;5034915;28;20215;-72
2022/05/10 07:13:30;;;;;;;5.35;4.53;;;;;;;;;;5035383;28;20228;-73
2022/05/10 07:15:58;;;;;;;5.00;4.50;;;;;;;;;;5035444;28;20262;-71
2022/05/10 07:18:27;;;;;;;5.07;4.57;;;;;;;;;;5035670;28;20319;-72
2022/05/10 07:20:56;;;;;;;5.15;4.55;;;;;;;;;;5034604;28;20204;-71
2022/05/10 07:23:27;;;;;;;5.22;4.72;;;;;;;;;;5035364;28;20615;-72
2022/05/10 07:26:02;;;;;;;5.55;4.50;;;;;;;;;;5035351;28;20221;-71
2022/05/10 07:28:32;;;;;;;5.93;4.70;;;;;;;;;;5035254;28;20267;-72
2022/05/10 07:31:01;;;;;;;5.07;4.53;;;;;;;;;;5034218;28;20706;-72
2022/05/10 07:33:29;;;;;;;6.93;4.47;;;;;;;;;;5035401;28;20310;-72
2022/05/10 07:38:50;;;;;;;6.90;4.88;;;;;;;;;;5019660;28;20227;-71
2022/05/10 07:41:22;;;;;;;6.13;4.75;;;;;;;;;;5033368;28;20203;-70
2022/05/10 07:43:51;;;;;;;6.45;4.32;;;;;;;;;;5035095;28;20223;-73
2022/05/10 07:46:19;;;;;;;5.53;4.47;;;;;;;;;;5034851;28;20733;-72
2022/05/10 07:48:48;;;;;;;4.93;4.28;;;;;;;;;;5034676;28;20242;-71
2022/05/10 07:51:16;;;;;;;5.20;4.70;;;;;;;;;;5034242;28;20254;-71
2022/05/10 07:53:44;;;;;;;5.25;4.80;;;;;;;;;;5034592;28;20223;-72
2022/05/10 07:56:15;;;;;;;5.25;4.75;;;;;;;;;;5034901;28;20200;-73
2022/05/10 07:58:53;;;;;;;8.13;4.60;;;;;;;;;;5034786;28;20227;-71
2022/05/10 08:01:22;;;;;;;4.93;4.40;;;;;;;;;;5033851;28;20211;-71
2022/05/10 08:03:50;;;;;;;5.13;4.63;;;;;;;;;;5034427;28;20204;-71
2022/05/10 08:06:20;;;;;;;5.72;4.85;;;;;;;;;;5034679;28;20211;-71
2022/05/10 08:08:48;;;;;;;5.75;4.75;;;;;;;;;;5034587;28;20285;-72
2022/05/10 08:11:18;;;;;;;6.65;5.32;;;;;;;;;;5033668;28;20667;-70
2022/05/10 08:13:47;;;;;;;7.20;4.97;;;;;;;;;;5031840;28;20289;-71
2022/05/10 08:16:16;;;;;;;6.97;5.25;;;;;;;;;;5034455;28;20250;-71
2022/05/10 08:18:48;;;;;;;6.00;4.55;;;;;;;;;;5033677;28;20703;-71
2022/05/10 08:21:17;;;;;;;9.10;4.63;;;;;;;;;;5034026;28;20556;-71
2022/05/10 08:23:47;;;;;;;6.18;5.20;;;;;;;;;;5033347;28;20211;-71
2022/05/10 08:26:16;;;;;;;7.13;5.22;;;;;;;;;;5034343;28;20231;-71
2022/05/10 08:28:46;;;;;;;6.38;4.95;;;;;;;;;;5033641;28;20224;-72
2022/05/10 08:31:15;;;;;;;5.53;5.03;;;;;;;;;;5033698;28;20211;-71
2022/05/10 08:33:44;;;;;;;5.75;5.20;;;;;;;;;;5083744;22;20226;-71
2022/05/10 08:39:06;;;;;;;8.77;5.20;;;;;;;;;;5032900;28;20949;-71
2022/05/10 08:41:47;;;;;;;7.32;5.40;;;;;;;;;;5142398;27;21207;-71
2022/05/10 08:44:16;;;;;;;7.53;5.45;;;;;;;;;;5126122;27;20208;-72
2022/05/10 08:46:46;;;;;;;5.88;5.13;;;;;;;;;;5129958;27;20610;-72
2022/05/10 08:49:17;;;;;;;8.32;5.68;;;;;;;;;;5147324;27;20197;-72
2022/05/10 08:51:46;;;;;;;5.93;5.43;;;;;;;;;;5142799;27;20208;-72
2022/05/10 08:54:15;;;;;;;8.45;5.10;;;;;;;;;;5146639;27;20203;-72
2022/05/10 08:56:47;;;;;;;7.07;5.90;;;;;;;;;;5140009;27;20208;-72
2022/05/10 08:59:25;;;;;;;5.65;5.10;;;;;;;;;;5132353;27;20207;-71
2022/05/10 09:01:58;;;;;;;6.53;5.18;;;;;;;;;;5139402;27;20209;-72
2022/05/10 09:04:44;;;;;;;5.70;5.07;;;;;;;;;;5137131;27;20196;-72
2022/05/10 09:07:30;;;;;;;5.57;5.07;;;;;;;;;;5145893;27;20713;-72
2022/05/10 09:10:04;;;;;;;8.80;5.70;;;;;;;;;;5148622;27;20241;-72
2022/05/10 09:12:40;;;;;;;6.35;5.30;;;;;;;;;;5147341;27;20207;-71
2022/05/10 09:15:10;;;;;;;6.10;5.45;;;;;;;;;;5144565;27;20595;-72
2022/05/10 09:17:39;;;;;;;6.13;5.22;;;;;;;;;;5133596;27;20255;-72
2022/05/10 09:27:39;;;;;;;7.55;5.43;;;;;;;;;;4786835;27;10000576;-72
2022/05/10 09:30:09;;;;;;;9.55;5.55;;;;;;;;;;5135658;27;20561;-73
2022/05/10 09:35:24;;;;;;;7.20;5.53;;;;;;;;;;5130435;27;20227;-72
2022/05/10 09:37:54;;;;;;;6.43;5.70;;;;;;;;;;5131352;27;20228;-73
2022/05/10 09:40:28;;;;;;;7.13;5.18;;;;;;;;;;5125751;27;20203;-70
2022/05/10 09:43:12;;;;;;;7.18;5.00;;;;;;;;;;5130994;27;20265;-72
2022/05/10 09:45:41;;;;;;;6.68;5.78;;;;;;;;;;5130149;27;20264;-72
2022/05/10 09:48:15;;;;;;;6.03;5.43;;;;;;;;;;5130866;28;20619;-73
2022/05/10 09:50:45;;;;;;;6.53;5.63;;;;;;;;;;5129788;27;20268;-72
2022/05/10 09:53:19;;;;;;;7.10;5.40;;;;;;;;;;5130755;27;20716;-72
2022/05/10 09:56:00;;;;;;;8.68;5.68;;;;;;;;;;5130714;27;20647;-73
2022/05/10 09:58:31;;;;;;;8.35;5.53;;;;;;;;;;5146201;27;20234;-72
2022/05/10 10:01:00;;;;;;;6.22;5.30;;;;;;;;;;5124973;28;20257;-72
2022/05/10 10:03:31;;;;;;;7.30;5.20;;;;;;;;;;5130689;27;20231;-74
2022/05/10 10:06:14;;;;;;;5.78;5.18;;;;;;;;;;5129299;28;20725;-72
2022/05/10 10:08:43;;;;;;;8.55;5.20;;;;;;;;;;5128602;27;20269;-71
2022/05/10 10:11:26;;;;;;;5.72;5.22;;;;;;;;;;5125598;27;20201;-72
2022/05/10 10:13:57;;;;;;;6.00;4.63;;;;;;;;;;5130186;27;20201;-73
2022/05/10 10:16:26;;;;;;;7.10;4.72;;;;;;;;;;5126192;28;20208;-71
2022/05/10 10:18:58;;;;;;;6.35;4.80;;;;;;;;;;5165721;22;20267;-71
2022/05/10 10:21:34;;;;;;;5.43;4.90;;;;;;;;;;4502814;28;10000963;-71
2022/05/10 10:24:04;;;;;;;4.80;4.32;;;;;;;;;;5089671;28;20616;-72
2022/05/10 10:26:37;;;;;;;5.13;4.50;;;;;;;;;;5088845;28;20217;-71
2022/05/10 10:29:10;;;;;;;6.57;4.30;;;;;;;;;;5071317;28;20260;-72
2022/05/10 10:31:41;;;;;;;7.30;5.13;;;;;;;;;;5088106;28;20255;-72
2022/05/10 10:34:12;;;;;;;5.75;5.25;;;;;;;;;;5089020;28;20199;-73
2022/05/10 10:36:46;;;;;;;6.97;5.78;;;;;;;;;;5088882;28;20197;-72
2022/05/10 10:39:18;;;;;;;7.25;5.28;;;;;;;;;;5074409;28;20194;-71
2022/05/10 10:41:49;;;;;;;9.30;5.88;;;;;;;;;;5075795;28;20206;-72
2022/05/10 10:44:21;;;;;;;7.30;5.90;;;;;;;;;;5075574;28;20637;-73
2022/05/10 10:46:55;;;;;;;9.20;5.32;;;;;;;;;;5075368;28;20218;-73
2022/05/10 10:49:26;;;;;;;5.85;5.30;;;;;;;;;;5073641;28;20701;-72
2022/05/10 10:51:55;;;;;;;6.32;5.32;;;;;;;;;;5074816;28;20202;-73
2022/05/10 10:54:25;;;;;;;8.18;5.28;;;;;;;;;;5074672;28;20628;-71
2022/05/10 10:57:07;;;;;;;6.55;5.22;;;;;;;;;;5074962;28;20202;-71
2022/05/10 10:59:42;;;;;;;5.57;5.07;;;;;;;;;;5074529;28;20210;-72
2022/05/10 11:02:22;;;;;;;8.40;5.35;;;;;;;;;;5074818;28;20209;-71
2022/05/10 11:04:57;;;;;;;8.05;4.80;;;;;;;;;;5074551;28;20238;-71
2022/05/10 11:10:39;;;;;;;5.70;5.10;;;;;;;;;;4791298;27;10000551;-71
2022/05/10 11:13:15;;;;;;;4.80;4.30;;;;;;;;;;5152673;27;20207;-72
2022/05/10 11:15:49;;;;;;;5.45;4.10;;;;;;;;;;5151771;27;20207;-73
2022/05/10 11:18:35;;;;;;;5.22;4.72;;;;;;;;;;5151673;27;20339;-72
2022/05/10 11:21:11;;;;;;;7.20;4.70;;;;;;;;;;5129136;27;20311;-71
2022/05/10 11:23:44;;;;;;;4.97;4.50;;;;;;;;;;5110313;28;20205;-71
2022/05/10 11:26:21;;;;;;;5.95;4.97;;;;;;;;;;5110996;28;20200;-71
2022/05/10 11:29:05;;;;;;;6.10;4.40;;;;;;;;;;5110355;28;20290;-73
2022/05/10 11:31:37;;;;;;;6.40;4.50;;;;;;;;;;5113473;28;20208;-71
2022/05/10 11:34:13;;;;;;;4.30;3.90;;;;;;;;;;5130655;27;20261;-71
2022/05/10 11:36:43;;;;;;;3.90;3.60;;;;;;;;;;5130249;27;20219;-71
2022/05/10 11:39:26;;;;;;;4.50;3.60;;;;;;;;;;5130533;27;20249;-73
2022/05/10 11:42:18;;;;;;;5.28;4.28;;;;;;;;;;5109598;28;20209;-73
2022/05/10 11:44:54;;;;;;;4.75;3.83;;;;;;;;;;5109808;28;20202;-72
2022/05/10 11:47:34;;;;;;;4.78;4.38;;;;;;;;;;5110282;28;20269;-73
2022/05/10 11:50:26;;;;;;;5.25;3.70;;;;;;;;;;5117948;28;20221;-71
2022/05/10 11:53:25;;;;;;;5.07;4.28;;;;;;;;;;5104421;28;20208;-73
2022/05/10 11:55:55;;;;;;;5.88;4.15;;;;;;;;;;5087102;28;20206;-72
2022/05/10 11:58:26;;;;;;;5.60;3.47;;;;;;;;;;5104831;28;20229;-73
2022/05/10 12:00:56;;;;;;;4.45;3.58;;;;;;;;;;5109394;28;20209;-72
2022/05/10 12:03:43;;;;;;;3.40;3.10;;;;;;;;;;5109295;28;20611;-73
2022/05/10 12:06:31;;;;;;;3.88;3.22;;;;;;;;;;5119610;28;20240;-72
2022/05/10 12:09:00;;;;;;;4.22;3.40;;;;;;;;;;5128104;27;20224;-71
2022/05/10 12:11:39;;;;;;;3.97;3.50;;;;;;;;;;5127146;27;20251;-73
2022/05/10 12:22:58;;;;;;;5.93;3.35;;;;;;;;;;5114984;27;20230;-73
2022/05/10 12:25:45;;;;;;;3.63;3.33;;;;;;;;;;5111664;28;20236;-71
2022/05/10 12:28:35;;;;;;;6.57;3.60;;;;;;;;;;5109434;28;20225;-72
2022/05/10 12:31:23;;;;;;;4.57;3.40;;;;;;;;;;5122996;27;20193;-71
2022/05/10 12:33:57;;;;;;;4.22;3.70;;;;;;;;;;5113883;27;20205;-71
2022/05/10 12:36:31;;;;;;;5.13;3.35;;;;;;;;;;5111473;28;20253;-71
2022/05/10 12:39:17;;;;;;;4.18;3.58;;;;;;;;;;5115635;28;20691;-73
2022/05/10 12:41:58;;;;;;;3.97;3.42;;;;;;;;;;5116879;27;20681;-72
2022/05/10 12:44:44;;;;;;;4.97;3.50;;;;;;;;;;5111924;28;20204;-72
2022/05/10 12:47:21;;;;;;;5.25;3.47;;;;;;;;;;5103876;27;20228;-72
2022/05/10 12:49:58;;;;;;;5.63;3.78;;;;;;;;;;5113475;28;20760;-71
2022/05/10 12:52:39;;;;;;;3.63;3.33;;;;;;;;;;5109553;28;20204;-72
2022/05/10 12:55:10;;;;;;;5.00;3.90;;;;;;;;;;5111551;28;20306;-73
2022/05/10 12:57:44;;;;;;;4.25;3.72;;;;;;;;;;5112930;28;20220;-71
2022/05/10 13:00:16;;;;;;;3.78;3.47;;;;;;;;;;5115146;28;20270;-71
2022/05/10 13:02:53;;;;;;;3.63;3.38;;;;;;;;;;5116274;28;20189;-71
2022/05/10 13:05:29;;;;;;;4.10;3.70;;;;;;;;;;5113832;28;20246;-71
2022/05/10 13:08:13;;;;;;;4.38;3.60;;;;;;;;;;5114453;28;20690;-72
2022/05/10 13:10:43;;;;;;;5.75;3.90;;;;;;;;;;5103705;28;20221;-72
2022/05/10 13:13:15;;;;;;;4.50;3.80;;;;;;;;;;5108483;28;20209;-72
2022/05/10 13:15:45;;;;;;;6.63;3.60;;;;;;;;;;5114811;28;20709;-71
2022/05/10 13:18:16;;;;;;;5.63;3.97;;;;;;;;;;5113555;28;20239;-73
2022/05/10 13:20:47;;;;;;;3.95;3.40;;;;;;;;;;5113390;28;20194;-72
2022/05/10 13:23:16;;;;;;;4.35;3.63;;;;;;;;;;5114761;28;20209;-73
2022/05/10 13:25:45;;;;;;;6.65;3.75;;;;;;;;;;5114353;27;20193;-72
2022/05/10 13:28:15;;;;;;;4.47;3.47;;;;;;;;;;5114351;28;20294;-73
2022/05/10 13:30:45;;;;;;;6.65;3.78;;;;;;;;;;5106324;28;20695;-72
2022/05/10 13:33:15;;;;;;;4.68;3.78;;;;;;;;;;5112595;28;20197;-72
2022/05/10 13:35:49;;;;;;;4.07;3.70;;;;;;;;;;5114053;28;20539;-71
2022/05/10 13:38:26;;;;;;;4.07;3.60;;;;;;;;;;5114560;28;20246;-71
2022/05/10 13:40:56;;;;;;;3.85;3.55;;;;;;;;;;5116209;27;20197;-71
2022/05/10 13:43:28;;;;;;;4.07;3.60;;;;;;;;;;5114472;28;20242;-72
2022/05/10 13:45:59;;;;;;;6.10;3.60;;;;;;;;;;5112945;28;20656;-72
2022/05/10 13:48:29;;;;;;;3.90;3.53;;;;;;;;;;5108470;27;20217;-72
2022/05/10 13:51:01;;;;;;;4.75;3.60;;;;;;;;;;5111848;28;20256;-71
2022/05/10 13:53:32;;;;;;;5.05;3.80;;;;;;;;;;5113018;28;20220;-72
2022/05/10 13:56:00;;;;;;;5.03;3.53;;;;;;;;;;5112516;28;20254;-72
2022/05/10 13:58:30;;;;;;;6.45;4.03;;;;;;;;;;5110241;27;20247;-74
2022/05/10 14:00:59;;;;;;;4.25;3.58;;;;;;;;;;5113668;28;20189;-73
2022/05/10 14:03:28;;;;;;;4.22;3.30;;;;;;;;;;5108070;28;20204;-72
2022/05/10 14:06:00;;;;;;;3.83;3.45;;;;;;;;;;5109979;28;20204;-72
2022/05/10 14:08:30;;;;;;;4.72;3.25;;;;;;;;;;5111513;28;20228;-72
2022/05/10 14:11:03;;;;;;;4.68;3.30;;;;;;;;;;5109305;28;20265;-72
2022/05/10 14:13:34;;;;;;;3.70;3.40;;;;;;;;;;5111877;28;20201;-73
2022/05/10 14:16:03;;;;;;;5.10;3.53;;;;;;;;;;5108221;28;20200;-72
2022/05/10 14:18:35;;;;;;;3.83;3.47;;;;;;;;;;5113333;28;20692;-72
2022/05/10 14:21:17;;;;;;;6.10;3.70;;;;;;;;;;5099642;28;20219;-73
2022/05/10 14:23:46;;;;;;;7.40;3.30;;;;;;;;;;5132273;22;20233;-72
2022/05/10 14:26:26;;;;;;;3.85;3.40;;;;;;;;;;5089961;28;20205;-72
2022/05/10 14:28:55;;;;;;;5.60;3.58;;;;;;;;;;5092743;28;20627;-72
2022/05/10 14:31:29;;;;;;;7.80;3.20;;;;;;;;;;5083591;28;20895;-74
2022/05/10 14:33:58;;;;;;;3.60;3.25;;;;;;;;;;5082647;28;20205;-73
2022/05/10 14:36:29;;;;;;;3.72;3.42;;;;;;;;;;5088126;28;20228;-72
2022/05/10 14:38:58;;;;;;;3.97;3.50;;;;;;;;;;5085269;28;20218;-73
2022/05/10 14:41:33;;;;;;;4.63;3.50;;;;;;;;;;5089421;28;20198;-72
2022/05/10 14:44:12;;;;;;;4.35;3.60;;;;;;;;;;5087015;28;20213;-72
2022/05/10 14:46:51;;;;;;;10.00;3.40;;;;;;;;;;5088697;28;20197;-72
2022/05/10 14:49:33;;;;;;;4.18;3.30;;;;;;;;;;5089480;28;20649;-72
2022/05/10 14:52:26;;;;;;;4.38;3.60;;;;;;;;;;5089295;28;20680;-72
2022/05/10 14:54:56;;;;;;;4.10;3.70;;;;;;;;;;5088866;28;20208;-72
2022/05/10 14:57:32;;;;;;;4.00;3.58;;;;;;;;;;5087298;28;20225;-72
2022/05/10 15:00:18;;;;;;;4.53;3.33;;;;;;;;;;5086026;28;20189;-72
2022/05/10 15:02:46;;;;;;;6.97;3.80;;;;;;;;;;5088740;28;20216;-73
2022/05/10 15:05:27;;;;;;;5.28;3.78;;;;;;;;;;5091550;28;20228;-73
2022/05/10 15:07:56;;;;;;;4.15;3.67;;;;;;;;;;5073757;28;20230;-72
2022/05/10 15:10:27;;;;;;;5.05;4.13;;;;;;;;;;5084630;28;20264;-73
2022/05/10 15:13:03;;;;;;;4.60;3.75;;;;;;;;;;5088713;28;20254;-72
2022/05/10 15:15:33;;;;;;;6.28;3.85;;;;;;;;;;5089012;28;20194;-73
2022/05/10 15:20:48;;;;;;;4.55;4.10;;;;;;;;;;5080490;28;20205;-74
2022/05/10 15:23:16;;;;;;;6.65;4.43;;;;;;;;;;5087002;28;20222;-72
2022/05/10 15:25:45;;;;;;;5.18;3.92;;;;;;;;;;5082536;28;20256;-72
2022/05/10 15:28:15;;;;;;;4.80;4.20;;;;;;;;;;5083157;28;20616;-73
2022/05/10 15:30:43;;;;;;;5.40;4.60;;;;;;;;;;5074639;28;20358;-72
2022/05/10 15:33:11;;;;;;;6.20;4.57;;;;;;;;;;5084331;28;20205;-70
2022/05/10 15:35:40;;;;;;;5.75;4.45;;;;;;;;;;5085613;28;20217;-73
2022/05/10 15:38:10;;;;;;;7.32;4.68;;;;;;;;;;5090792;28;20209;-72
2022/05/10 15:40:39;;;;;;;7.97;4.72;;;;;;;;;;5082907;28;20204;-72
2022/05/10 15:43:08;;;;;;;4.70;4.30;;;;;;;;;;5088817;28;20205;-73
2022/05/10 15:45:38;;;;;;;5.32;4.93;;;;;;;;;;5088317;28;20266;-73
2022/05/10 15:48:07;;;;;;;5.82;4.55;;;;;;;;;;5096496;28;20242;-73
2022/05/10 15:50:37;;;;;;;6.65;4.43;;;;;;;;;;5090612;28;20262;-74
2022/05/10 15:53:06;;;;;;;5.75;4.28;;;;;;;;;;5087540;28;20201;-72